sensor_id;sensor_type;location;lat;lon;timestamp;P1;durP1;ratioP1;P2;durP2;ratioP2
51618;SDS011;38518;53.164;5.430;2022-10-23T00:01:22;21.38;;;10.68;;
51618;SDS011;38518;53.164;5.430;2022-10-23T00:04:01;23.98;;;10.80;;
51618;SDS011;38518;53.164;5.430;2022-10-23T00:06:31;17.88;;;10.48;;
51618;SDS011;38518;53.164;5.430;2022-10-23T00:08:58;18.90;;;10.95;;
51618;SDS011;38518;53.164;5.430;2022-10-23T00:11:26;19.17;;;8.95;;
51618;SDS011;38518;53.164;5.430;2022-10-23T00:13:54;23.25;;;11.13;;
51618;SDS011;38518;53.164;5.430;2022-10-23T00:16:21;22.83;;;11.77;;
51618;SDS011;38518;53.164;5.430;2022-10-23T00:18:47;28.60;;;11.88;;
51618;SDS011;38518;53.164;5.430;2022-10-23T00:21:14;22.23;;;10.50;;
51618;SDS011;38518;53.164;5.430;2022-10-23T00:23:41;21.67;;;11.23;;
51618;SDS011;38518;53.164;5.430;2022-10-23T00:26:07;22.77;;;11.07;;
51618;SDS011;38518;53.164;5.430;2022-10-23T00:28:35;25.65;;;11.77;;
51618;SDS011;38518;53.164;5.430;2022-10-23T00:31:05;22.23;;;11.45;;
51618;SDS011;38518;53.164;5.430;2022-10-23T00:33:31;20.73;;;11.63;;
51618;SDS011;38518;53.164;5.430;2022-10-23T00:35:57;17.10;;;10.57;;
51618;SDS011;38518;53.164;5.430;2022-10-23T00:38:23;24.15;;;11.68;;
51618;SDS011;38518;53.164;5.430;2022-10-23T00:40:49;20.50;;;11.60;;
51618;SDS011;38518;53.164;5.430;2022-10-23T00:43:17;27.10;;;12.30;;
51618;SDS011;38518;53.164;5.430;2022-10-23T00:45:45;24.20;;;11.63;;
51618;SDS011;38518;53.164;5.430;2022-10-23T00:48:10;16.35;;;8.98;;
51618;SDS011;38518;53.164;5.430;2022-10-23T00:50:37;21.35;;;11.73;;
51618;SDS011;38518;53.164;5.430;2022-10-23T00:53:04;23.05;;;13.13;;
51618;SDS011;38518;53.164;5.430;2022-10-23T00:55:31;19.98;;;11.32;;
51618;SDS011;38518;53.164;5.430;2022-10-23T00:57:58;21.67;;;9.77;;
51618;SDS011;38518;53.164;5.430;2022-10-23T01:00:25;20.23;;;12.70;;
51618;SDS011;38518;53.164;5.430;2022-10-23T01:03:04;20.80;;;11.00;;
51618;SDS011;38518;53.164;5.430;2022-10-23T01:05:30;21.45;;;13.45;;
51618;SDS011;38518;53.164;5.430;2022-10-23T01:08:17;20.73;;;13.75;;
51618;SDS011;38518;53.164;5.430;2022-10-23T01:11:09;24.85;;;10.55;;
51618;SDS011;38518;53.164;5.430;2022-10-23T01:13:44;25.30;;;15.15;;
51618;SDS011;38518;53.164;5.430;2022-10-23T01:16:21;18.92;;;13.82;;
51618;SDS011;38518;53.164;5.430;2022-10-23T01:29:42;24.65;;;16.27;;
51618;SDS011;38518;53.164;5.430;2022-10-23T01:32:14;36.25;;;18.30;;
51618;SDS011;38518;53.164;5.430;2022-10-23T01:34:45;22.45;;;15.13;;
51618;SDS011;38518;53.164;5.430;2022-10-23T01:37:15;24.55;;;15.55;;
51618;SDS011;38518;53.164;5.430;2022-10-23T01:39:56;24.98;;;17.48;;
51618;SDS011;38518;53.164;5.430;2022-10-23T01:42:28;26.65;;;18.05;;
51618;SDS011;38518;53.164;5.430;2022-10-23T01:45:00;22.85;;;15.93;;
51618;SDS011;38518;53.164;5.430;2022-10-23T01:47:32;24.77;;;16.67;;
51618;SDS011;38518;53.164;5.430;2022-10-23T01:49:59;23.67;;;12.65;;
51618;SDS011;38518;53.164;5.430;2022-10-23T01:52:29;24.38;;;16.52;;
51618;SDS011;38518;53.164;5.430;2022-10-23T01:54:56;28.13;;;19.13;;
51618;SDS011;38518;53.164;5.430;2022-10-23T01:57:24;27.23;;;18.15;;
51618;SDS011;38518;53.164;5.430;2022-10-23T01:59:53;23.23;;;16.48;;
51618;SDS011;38518;53.164;5.430;2022-10-23T02:02:22;19.33;;;12.55;;
51618;SDS011;38518;53.164;5.430;2022-10-23T02:05:05;22.10;;;16.88;;
51618;SDS011;38518;53.164;5.430;2022-10-23T02:07:40;26.70;;;17.70;;
51618;SDS011;38518;53.164;5.430;2022-10-23T02:10:06;23.38;;;17.85;;
51618;SDS011;38518;53.164;5.430;2022-10-23T02:12:44;27.38;;;19.77;;
51618;SDS011;38518;53.164;5.430;2022-10-23T02:15:34;22.90;;;16.52;;
51618;SDS011;38518;53.164;5.430;2022-10-23T02:18:26;25.20;;;16.85;;
51618;SDS011;38518;53.164;5.430;2022-10-23T02:21:00;26.90;;;18.42;;
51618;SDS011;38518;53.164;5.430;2022-10-23T02:23:55;24.35;;;17.05;;
51618;SDS011;38518;53.164;5.430;2022-10-23T02:26:32;25.17;;;17.02;;
51618;SDS011;38518;53.164;5.430;2022-10-23T02:29:14;26.27;;;18.50;;
51618;SDS011;38518;53.164;5.430;2022-10-23T02:31:45;21.42;;;17.55;;
51618;SDS011;38518;53.164;5.430;2022-10-23T02:34:11;27.70;;;19.35;;
51618;SDS011;38518;53.164;5.430;2022-10-23T02:36:37;26.10;;;14.73;;
51618;SDS011;38518;53.164;5.430;2022-10-23T02:39:03;26.27;;;19.23;;
51618;SDS011;38518;53.164;5.430;2022-10-23T02:44:21;29.10;;;20.02;;
51618;SDS011;38518;53.164;5.430;2022-10-23T02:52:20;22.20;;;14.88;;
51618;SDS011;38518;53.164;5.430;2022-10-23T02:57:31;33.60;;;22.50;;
51618;SDS011;38518;53.164;5.430;2022-10-23T03:00:13;28.70;;;19.65;;
51618;SDS011;38518;53.164;5.430;2022-10-23T03:02:45;30.08;;;21.67;;
51618;SDS011;38518;53.164;5.430;2022-10-23T03:05:17;28.07;;;22.10;;
51618;SDS011;38518;53.164;5.430;2022-10-23T03:07:46;24.08;;;15.05;;
51618;SDS011;38518;53.164;5.430;2022-10-23T03:10:12;24.77;;;18.63;;
51618;SDS011;38518;53.164;5.430;2022-10-23T03:12:38;25.83;;;20.08;;
51618;SDS011;38518;53.164;5.430;2022-10-23T03:15:04;26.38;;;21.63;;
51618;SDS011;38518;53.164;5.430;2022-10-23T03:17:31;23.48;;;20.42;;
51618;SDS011;38518;53.164;5.430;2022-10-23T03:19:56;40.25;;;24.35;;
51618;SDS011;38518;53.164;5.430;2022-10-23T03:22:22;22.55;;;20.10;;
51618;SDS011;38518;53.164;5.430;2022-10-23T03:24:48;23.75;;;21.08;;
51618;SDS011;38518;53.164;5.430;2022-10-23T03:27:14;24.05;;;17.55;;
51618;SDS011;38518;53.164;5.430;2022-10-23T03:29:40;27.05;;;21.70;;
51618;SDS011;38518;53.164;5.430;2022-10-23T03:32:06;25.40;;;21.67;;
51618;SDS011;38518;53.164;5.430;2022-10-23T03:34:32;24.25;;;21.67;;
51618;SDS011;38518;53.164;5.430;2022-10-23T03:36:58;27.92;;;17.70;;
51618;SDS011;38518;53.164;5.430;2022-10-23T03:39:24;23.90;;;21.35;;
51618;SDS011;38518;53.164;5.430;2022-10-23T03:41:50;30.63;;;25.25;;
51618;SDS011;38518;53.164;5.430;2022-10-23T03:44:16;29.05;;;23.35;;
51618;SDS011;38518;53.164;5.430;2022-10-23T03:46:42;31.40;;;23.10;;
51618;SDS011;38518;53.164;5.430;2022-10-23T03:49:08;30.17;;;24.50;;
51618;SDS011;38518;53.164;5.430;2022-10-23T03:51:34;31.08;;;26.00;;
51618;SDS011;38518;53.164;5.430;2022-10-23T03:53:59;29.15;;;23.23;;
51618;SDS011;38518;53.164;5.430;2022-10-23T03:56:25;25.73;;;23.02;;
51618;SDS011;38518;53.164;5.430;2022-10-23T03:58:51;43.50;;;28.60;;
51618;SDS011;38518;53.164;5.430;2022-10-23T04:01:17;28.63;;;18.95;;
51618;SDS011;38518;53.164;5.430;2022-10-23T04:03:43;25.85;;;17.63;;
51618;SDS011;38518;53.164;5.430;2022-10-23T04:06:09;30.83;;;24.38;;
51618;SDS011;38518;53.164;5.430;2022-10-23T04:08:34;27.98;;;23.80;;
51618;SDS011;38518;53.164;5.430;2022-10-23T04:11:01;29.35;;;26.30;;
51618;SDS011;38518;53.164;5.430;2022-10-23T04:13:27;30.48;;;24.20;;
51618;SDS011;38518;53.164;5.430;2022-10-23T04:15:53;30.95;;;26.38;;
51618;SDS011;38518;53.164;5.430;2022-10-23T04:18:19;37.95;;;28.48;;
51618;SDS011;38518;53.164;5.430;2022-10-23T04:20:47;41.97;;;30.65;;
51618;SDS011;38518;53.164;5.430;2022-10-23T04:23:14;29.45;;;25.67;;
51618;SDS011;38518;53.164;5.430;2022-10-23T04:25:40;34.47;;;27.27;;
51618;SDS011;38518;53.164;5.430;2022-10-23T04:28:06;31.58;;;27.10;;
51618;SDS011;38518;53.164;5.430;2022-10-23T04:30:31;32.95;;;26.95;;
51618;SDS011;38518;53.164;5.430;2022-10-23T04:32:57;40.40;;;31.17;;
51618;SDS011;38518;53.164;5.430;2022-10-23T04:35:23;43.72;;;30.88;;
51618;SDS011;38518;53.164;5.430;2022-10-23T04:37:49;36.05;;;28.25;;
51618;SDS011;38518;53.164;5.430;2022-10-23T04:40:14;40.30;;;28.80;;
51618;SDS011;38518;53.164;5.430;2022-10-23T04:42:40;36.53;;;30.33;;
51618;SDS011;38518;53.164;5.430;2022-10-23T04:45:06;40.17;;;31.17;;
51618;SDS011;38518;53.164;5.430;2022-10-23T04:47:32;42.58;;;31.52;;
51618;SDS011;38518;53.164;5.430;2022-10-23T04:49:57;29.98;;;21.15;;
51618;SDS011;38518;53.164;5.430;2022-10-23T04:52:23;31.35;;;26.80;;
51618;SDS011;38518;53.164;5.430;2022-10-23T04:54:49;40.03;;;22.40;;
51618;SDS011;38518;53.164;5.430;2022-10-23T04:57:14;33.83;;;29.30;;
51618;SDS011;38518;53.164;5.430;2022-10-23T04:59:40;48.88;;;31.98;;
51618;SDS011;38518;53.164;5.430;2022-10-23T05:02:06;42.20;;;33.20;;
51618;SDS011;38518;53.164;5.430;2022-10-23T05:04:31;32.05;;;28.65;;
51618;SDS011;38518;53.164;5.430;2022-10-23T05:06:57;36.78;;;28.45;;
51618;SDS011;38518;53.164;5.430;2022-10-23T05:09:23;36.70;;;27.98;;
51618;SDS011;38518;53.164;5.430;2022-10-23T05:11:49;33.55;;;28.10;;
51618;SDS011;38518;53.164;5.430;2022-10-23T05:14:14;35.25;;;27.98;;
51618;SDS011;38518;53.164;5.430;2022-10-23T05:16:45;38.33;;;29.80;;
51618;SDS011;38518;53.164;5.430;2022-10-23T05:21:46;34.08;;;28.92;;
51618;SDS011;38518;53.164;5.430;2022-10-23T05:24:15;34.20;;;27.98;;
51618;SDS011;38518;53.164;5.430;2022-10-23T05:26:41;36.35;;;28.13;;
51618;SDS011;38518;53.164;5.430;2022-10-23T05:29:06;37.45;;;30.60;;
51618;SDS011;38518;53.164;5.430;2022-10-23T05:31:32;30.83;;;26.67;;
51618;SDS011;38518;53.164;5.430;2022-10-23T05:33:59;36.33;;;28.67;;
51618;SDS011;38518;53.164;5.430;2022-10-23T05:36:25;29.25;;;25.33;;
51618;SDS011;38518;53.164;5.430;2022-10-23T05:38:51;27.23;;;19.05;;
51618;SDS011;38518;53.164;5.430;2022-10-23T05:41:18;28.38;;;18.63;;
51618;SDS011;38518;53.164;5.430;2022-10-23T05:43:43;34.08;;;24.42;;
51618;SDS011;38518;53.164;5.430;2022-10-23T05:46:10;27.45;;;23.33;;
51618;SDS011;38518;53.164;5.430;2022-10-23T05:48:36;19.45;;;15.68;;
51618;SDS011;38518;53.164;5.430;2022-10-23T05:51:05;24.92;;;18.77;;
51618;SDS011;38518;53.164;5.430;2022-10-23T05:53:33;40.08;;;26.80;;
51618;SDS011;38518;53.164;5.430;2022-10-23T05:56:05;38.30;;;28.55;;
51618;SDS011;38518;53.164;5.430;2022-10-23T05:58:31;29.70;;;24.25;;
51618;SDS011;38518;53.164;5.430;2022-10-23T06:00:57;31.00;;;25.00;;
51618;SDS011;38518;53.164;5.430;2022-10-23T06:03:23;36.03;;;26.10;;
51618;SDS011;38518;53.164;5.430;2022-10-23T06:05:49;31.20;;;25.67;;
51618;SDS011;38518;53.164;5.430;2022-10-23T06:08:15;33.65;;;27.15;;
51618;SDS011;38518;53.164;5.430;2022-10-23T06:10:42;25.23;;;20.95;;
51618;SDS011;38518;53.164;5.430;2022-10-23T06:13:07;31.10;;;26.88;;
51618;SDS011;38518;53.164;5.430;2022-10-23T06:15:33;31.10;;;25.80;;
51618;SDS011;38518;53.164;5.430;2022-10-23T06:18:02;22.92;;;18.13;;
51618;SDS011;38518;53.164;5.430;2022-10-23T06:20:29;23.73;;;18.65;;
51618;SDS011;38518;53.164;5.430;2022-10-23T06:22:55;26.77;;;21.60;;
51618;SDS011;38518;53.164;5.430;2022-10-23T06:25:20;20.90;;;15.90;;
51618;SDS011;38518;53.164;5.430;2022-10-23T06:27:46;19.48;;;14.13;;
51618;SDS011;38518;53.164;5.430;2022-10-23T06:30:12;20.17;;;16.13;;
51618;SDS011;38518;53.164;5.430;2022-10-23T06:32:38;21.30;;;18.40;;
51618;SDS011;38518;53.164;5.430;2022-10-23T06:35:04;20.75;;;18.33;;
51618;SDS011;38518;53.164;5.430;2022-10-23T06:37:32;27.27;;;21.23;;
51618;SDS011;38518;53.164;5.430;2022-10-23T06:39:58;33.90;;;25.98;;
51618;SDS011;38518;53.164;5.430;2022-10-23T06:42:24;25.77;;;16.92;;
51618;SDS011;38518;53.164;5.430;2022-10-23T06:44:50;28.67;;;21.92;;
51618;SDS011;38518;53.164;5.430;2022-10-23T06:47:15;24.88;;;17.33;;
51618;SDS011;38518;53.164;5.430;2022-10-23T06:49:41;20.85;;;17.48;;
51618;SDS011;38518;53.164;5.430;2022-10-23T06:52:09;31.27;;;22.35;;
51618;SDS011;38518;53.164;5.430;2022-10-23T06:54:35;22.60;;;19.33;;
51618;SDS011;38518;53.164;5.430;2022-10-23T06:57:00;20.35;;;18.15;;
51618;SDS011;38518;53.164;5.430;2022-10-23T06:59:26;20.40;;;18.08;;
51618;SDS011;38518;53.164;5.430;2022-10-23T07:01:52;20.65;;;18.42;;
51618;SDS011;38518;53.164;5.430;2022-10-23T07:04:17;24.33;;;17.70;;
51618;SDS011;38518;53.164;5.430;2022-10-23T07:06:43;22.00;;;18.25;;
51618;SDS011;38518;53.164;5.430;2022-10-23T07:09:09;21.45;;;18.23;;
51618;SDS011;38518;53.164;5.430;2022-10-23T07:11:35;20.52;;;17.52;;
51618;SDS011;38518;53.164;5.430;2022-10-23T07:14:01;24.75;;;17.38;;
51618;SDS011;38518;53.164;5.430;2022-10-23T07:16:27;21.15;;;18.10;;
51618;SDS011;38518;53.164;5.430;2022-10-23T07:18:53;23.15;;;16.92;;
51618;SDS011;38518;53.164;5.430;2022-10-23T07:21:24;25.35;;;20.00;;
51618;SDS011;38518;53.164;5.430;2022-10-23T07:23:50;24.65;;;18.15;;
51618;SDS011;38518;53.164;5.430;2022-10-23T07:26:16;32.78;;;24.02;;
51618;SDS011;38518;53.164;5.430;2022-10-23T07:28:43;28.70;;;24.08;;
51618;SDS011;38518;53.164;5.430;2022-10-23T07:31:10;26.40;;;23.05;;
51618;SDS011;38518;53.164;5.430;2022-10-23T07:33:40;25.30;;;21.80;;
51618;SDS011;38518;53.164;5.430;2022-10-23T07:36:06;22.33;;;17.83;;
51618;SDS011;38518;53.164;5.430;2022-10-23T07:38:33;21.90;;;17.23;;
51618;SDS011;38518;53.164;5.430;2022-10-23T07:40:59;22.05;;;16.42;;
51618;SDS011;38518;53.164;5.430;2022-10-23T07:43:25;24.73;;;17.25;;
51618;SDS011;38518;53.164;5.430;2022-10-23T07:45:52;18.75;;;14.90;;
51618;SDS011;38518;53.164;5.430;2022-10-23T07:48:18;21.98;;;16.27;;
51618;SDS011;38518;53.164;5.430;2022-10-23T07:50:45;21.15;;;16.65;;
51618;SDS011;38518;53.164;5.430;2022-10-23T07:53:21;20.60;;;16.83;;
51618;SDS011;38518;53.164;5.430;2022-10-23T07:55:53;22.67;;;17.42;;
51618;SDS011;38518;53.164;5.430;2022-10-23T07:58:20;18.40;;;14.57;;
51618;SDS011;38518;53.164;5.430;2022-10-23T08:00:48;19.17;;;14.95;;
51618;SDS011;38518;53.164;5.430;2022-10-23T08:03:27;22.67;;;14.38;;
51618;SDS011;38518;53.164;5.430;2022-10-23T08:05:54;19.08;;;14.90;;
51618;SDS011;38518;53.164;5.430;2022-10-23T08:08:21;22.42;;;16.55;;
51618;SDS011;38518;53.164;5.430;2022-10-23T08:10:48;21.00;;;14.23;;
51618;SDS011;38518;53.164;5.430;2022-10-23T08:13:15;19.38;;;14.65;;
51618;SDS011;38518;53.164;5.430;2022-10-23T08:15:42;19.65;;;15.05;;
51618;SDS011;38518;53.164;5.430;2022-10-23T08:18:09;20.90;;;15.88;;
51618;SDS011;38518;53.164;5.430;2022-10-23T08:20:38;18.42;;;15.23;;
51618;SDS011;38518;53.164;5.430;2022-10-23T08:23:06;20.70;;;15.95;;
51618;SDS011;38518;53.164;5.430;2022-10-23T08:25:32;19.30;;;13.98;;
51618;SDS011;38518;53.164;5.430;2022-10-23T08:27:58;16.70;;;13.10;;
51618;SDS011;38518;53.164;5.430;2022-10-23T08:30:24;19.42;;;13.38;;
51618;SDS011;38518;53.164;5.430;2022-10-23T08:32:51;18.90;;;14.00;;
51618;SDS011;38518;53.164;5.430;2022-10-23T08:35:17;16.23;;;12.57;;
51618;SDS011;38518;53.164;5.430;2022-10-23T08:37:43;19.00;;;12.60;;
51618;SDS011;38518;53.164;5.430;2022-10-23T08:40:13;14.63;;;12.35;;
51618;SDS011;38518;53.164;5.430;2022-10-23T08:42:47;15.40;;;11.10;;
51618;SDS011;38518;53.164;5.430;2022-10-23T08:45:42;19.38;;;12.52;;
51618;SDS011;38518;53.164;5.430;2022-10-23T08:48:25;18.13;;;12.82;;
51618;SDS011;38518;53.164;5.430;2022-10-23T08:51:06;19.95;;;13.00;;
51618;SDS011;38518;53.164;5.430;2022-10-23T08:56:30;21.08;;;16.25;;
51618;SDS011;38518;53.164;5.430;2022-10-23T09:01:59;19.88;;;15.65;;
51618;SDS011;38518;53.164;5.430;2022-10-23T09:04:34;17.92;;;11.93;;
51618;SDS011;38518;53.164;5.430;2022-10-23T09:12:48;16.77;;;12.00;;
51618;SDS011;38518;53.164;5.430;2022-10-23T09:18:15;17.42;;;13.43;;
51618;SDS011;38518;53.164;5.430;2022-10-23T09:20:43;14.10;;;11.05;;
51618;SDS011;38518;53.164;5.430;2022-10-23T09:23:14;14.27;;;10.30;;
51618;SDS011;38518;53.164;5.430;2022-10-23T09:25:43;16.80;;;10.35;;
51618;SDS011;38518;53.164;5.430;2022-10-23T09:28:15;13.13;;;9.57;;
51618;SDS011;38518;53.164;5.430;2022-10-23T09:30:44;16.20;;;12.93;;
51618;SDS011;38518;53.164;5.430;2022-10-23T09:33:15;17.20;;;12.90;;
51618;SDS011;38518;53.164;5.430;2022-10-23T09:38:33;13.85;;;11.63;;
51618;SDS011;38518;53.164;5.430;2022-10-23T09:41:01;13.68;;;10.18;;
51618;SDS011;38518;53.164;5.430;2022-10-23T09:43:32;16.85;;;12.35;;
51618;SDS011;38518;53.164;5.430;2022-10-23T09:45:59;14.10;;;11.90;;
51618;SDS011;38518;53.164;5.430;2022-10-23T09:48:27;14.13;;;10.95;;
51618;SDS011;38518;53.164;5.430;2022-10-23T09:50:53;13.30;;;10.02;;
51618;SDS011;38518;53.164;5.430;2022-10-23T09:53:35;13.07;;;10.68;;
51618;SDS011;38518;53.164;5.430;2022-10-23T09:56:04;11.00;;;9.43;;
51618;SDS011;38518;53.164;5.430;2022-10-23T09:58:37;11.20;;;8.95;;
51618;SDS011;38518;53.164;5.430;2022-10-23T10:01:20;13.15;;;11.40;;
51618;SDS011;38518;53.164;5.430;2022-10-23T10:03:51;16.13;;;11.27;;
51618;SDS011;38518;53.164;5.430;2022-10-23T10:06:25;16.40;;;9.68;;
51618;SDS011;38518;53.164;5.430;2022-10-23T10:16:50;13.90;;;11.02;;
51618;SDS011;38518;53.164;5.430;2022-10-23T10:19:29;11.18;;;10.07;;
51618;SDS011;38518;53.164;5.430;2022-10-23T10:28:30;10.95;;;8.75;;
51618;SDS011;38518;53.164;5.430;2022-10-23T10:36:25;8.82;;;7.93;;
51618;SDS011;38518;53.164;5.430;2022-10-23T10:38:59;13.45;;;7.75;;
51618;SDS011;38518;53.164;5.430;2022-10-23T10:41:36;10.40;;;7.43;;
51618;SDS011;38518;53.164;5.430;2022-10-23T10:44:33;10.02;;;7.18;;
51618;SDS011;38518;53.164;5.430;2022-10-23T10:49:47;9.07;;;7.68;;
51618;SDS011;38518;53.164;5.430;2022-10-23T10:57:31;9.93;;;6.43;;
51618;SDS011;38518;53.164;5.430;2022-10-23T11:00:23;10.75;;;7.40;;
51618;SDS011;38518;53.164;5.430;2022-10-23T11:02:51;12.88;;;9.07;;
51618;SDS011;38518;53.164;5.430;2022-10-23T11:05:30;10.65;;;9.20;;
51618;SDS011;38518;53.164;5.430;2022-10-23T11:08:00;15.75;;;8.05;;
51618;SDS011;38518;53.164;5.430;2022-10-23T11:10:31;9.32;;;8.38;;
51618;SDS011;38518;53.164;5.430;2022-10-23T11:13:00;12.70;;;8.60;;
51618;SDS011;38518;53.164;5.430;2022-10-23T11:15:27;9.07;;;7.85;;
51618;SDS011;38518;53.164;5.430;2022-10-23T11:18:02;12.10;;;8.57;;
51618;SDS011;38518;53.164;5.430;2022-10-23T11:31:26;7.88;;;6.97;;
51618;SDS011;38518;53.164;5.430;2022-10-23T11:37:14;9.93;;;6.18;;
51618;SDS011;38518;53.164;5.430;2022-10-23T11:42:29;8.90;;;6.95;;
51618;SDS011;38518;53.164;5.430;2022-10-23T11:50:32;10.18;;;6.97;;
51618;SDS011;38518;53.164;5.430;2022-10-23T12:01:29;8.27;;;5.93;;
51618;SDS011;38518;53.164;5.430;2022-10-23T12:06:39;9.73;;;6.32;;
51618;SDS011;38518;53.164;5.430;2022-10-23T12:09:21;8.52;;;6.95;;
51618;SDS011;38518;53.164;5.430;2022-10-23T12:14:38;7.60;;;6.80;;
51618;SDS011;38518;53.164;5.430;2022-10-23T12:19:54;8.05;;;5.88;;
51618;SDS011;38518;53.164;5.430;2022-10-23T12:22:27;9.32;;;6.40;;
51618;SDS011;38518;53.164;5.430;2022-10-23T12:25:25;9.68;;;5.72;;
51618;SDS011;38518;53.164;5.430;2022-10-23T12:28:01;6.82;;;5.60;;
51618;SDS011;38518;53.164;5.430;2022-10-23T12:30:39;7.75;;;5.50;;
51618;SDS011;38518;53.164;5.430;2022-10-23T12:36:06;8.88;;;6.95;;
51618;SDS011;38518;53.164;5.430;2022-10-23T12:38:52;8.80;;;6.97;;
51618;SDS011;38518;53.164;5.430;2022-10-23T12:41:26;7.00;;;5.90;;
51618;SDS011;38518;53.164;5.430;2022-10-23T12:43:55;12.50;;;6.38;;
51618;SDS011;38518;53.164;5.430;2022-10-23T12:49:14;6.30;;;5.28;;
51618;SDS011;38518;53.164;5.430;2022-10-23T12:51:42;7.90;;;5.75;;
51618;SDS011;38518;53.164;5.430;2022-10-23T12:54:17;7.95;;;5.15;;
51618;SDS011;38518;53.164;5.430;2022-10-23T12:56:44;8.95;;;5.07;;
51618;SDS011;38518;53.164;5.430;2022-10-23T12:59:15;7.57;;;4.60;;
51618;SDS011;38518;53.164;5.430;2022-10-23T13:02:20;6.50;;;5.00;;
51618;SDS011;38518;53.164;5.430;2022-10-23T13:04:48;9.73;;;5.68;;
51618;SDS011;38518;53.164;5.430;2022-10-23T13:07:27;7.55;;;4.72;;
51618;SDS011;38518;53.164;5.430;2022-10-23T13:09:56;6.32;;;4.57;;
51618;SDS011;38518;53.164;5.430;2022-10-23T13:12:27;4.75;;;4.18;;
51618;SDS011;38518;53.164;5.430;2022-10-23T13:17:34;9.57;;;4.93;;
51618;SDS011;38518;53.164;5.430;2022-10-23T13:22:42;9.38;;;4.47;;
51618;SDS011;38518;53.164;5.430;2022-10-23T13:28:10;5.47;;;4.22;;
51618;SDS011;38518;53.164;5.430;2022-10-23T13:30:45;9.68;;;5.53;;
51618;SDS011;38518;53.164;5.430;2022-10-23T13:33:31;6.35;;;4.47;;
51618;SDS011;38518;53.164;5.430;2022-10-23T13:36:01;9.30;;;4.82;;
51618;SDS011;38518;53.164;5.430;2022-10-23T13:38:44;7.72;;;4.53;;
51618;SDS011;38518;53.164;5.430;2022-10-23T13:41:18;6.50;;;4.38;;
51618;SDS011;38518;53.164;5.430;2022-10-23T13:43:45;10.13;;;4.65;;
51618;SDS011;38518;53.164;5.430;2022-10-23T13:46:15;5.88;;;4.85;;
51618;SDS011;38518;53.164;5.430;2022-10-23T13:48:42;15.13;;;5.10;;
51618;SDS011;38518;53.164;5.430;2022-10-23T13:51:13;7.97;;;5.05;;
51618;SDS011;38518;53.164;5.430;2022-10-23T13:53:43;7.13;;;5.40;;
51618;SDS011;38518;53.164;5.430;2022-10-23T13:56:10;7.75;;;5.05;;
51618;SDS011;38518;53.164;5.430;2022-10-23T13:58:36;7.18;;;4.95;;
51618;SDS011;38518;53.164;5.430;2022-10-23T14:01:02;7.88;;;5.28;;
51618;SDS011;38518;53.164;5.430;2022-10-23T14:03:28;6.95;;;5.13;;
51618;SDS011;38518;53.164;5.430;2022-10-23T14:05:54;7.75;;;5.13;;
51618;SDS011;38518;53.164;5.430;2022-10-23T14:08:20;9.02;;;4.90;;
51618;SDS011;38518;53.164;5.430;2022-10-23T14:10:45;6.65;;;4.30;;
51618;SDS011;38518;53.164;5.430;2022-10-23T14:13:11;8.70;;;4.90;;
51618;SDS011;38518;53.164;5.430;2022-10-23T14:15:37;6.38;;;4.35;;
51618;SDS011;38518;53.164;5.430;2022-10-23T14:18:03;7.18;;;4.70;;
51618;SDS011;38518;53.164;5.430;2022-10-23T14:20:28;6.30;;;4.43;;
51618;SDS011;38518;53.164;5.430;2022-10-23T14:22:54;6.90;;;4.15;;
51618;SDS011;38518;53.164;5.430;2022-10-23T14:25:20;7.50;;;4.57;;
51618;SDS011;38518;53.164;5.430;2022-10-23T14:27:46;7.80;;;4.55;;
51618;SDS011;38518;53.164;5.430;2022-10-23T14:30:12;6.60;;;4.32;;
51618;SDS011;38518;53.164;5.430;2022-10-23T14:32:39;6.55;;;4.55;;
51618;SDS011;38518;53.164;5.430;2022-10-23T14:35:04;6.28;;;4.75;;
51618;SDS011;38518;53.164;5.430;2022-10-23T14:37:31;6.43;;;5.00;;
51618;SDS011;38518;53.164;5.430;2022-10-23T14:39:58;6.18;;;4.55;;
51618;SDS011;38518;53.164;5.430;2022-10-23T14:42:24;6.70;;;4.68;;
51618;SDS011;38518;53.164;5.430;2022-10-23T14:44:50;6.57;;;4.68;;
51618;SDS011;38518;53.164;5.430;2022-10-23T14:47:16;8.13;;;4.45;;
51618;SDS011;38518;53.164;5.430;2022-10-23T14:49:43;7.22;;;4.88;;
51618;SDS011;38518;53.164;5.430;2022-10-23T14:52:14;7.20;;;4.65;;
51618;SDS011;38518;53.164;5.430;2022-10-23T14:54:40;5.40;;;4.55;;
51618;SDS011;38518;53.164;5.430;2022-10-23T14:57:06;6.95;;;4.65;;
51618;SDS011;38518;53.164;5.430;2022-10-23T14:59:32;7.65;;;4.72;;
51618;SDS011;38518;53.164;5.430;2022-10-23T15:01:57;6.38;;;5.40;;
51618;SDS011;38518;53.164;5.430;2022-10-23T15:04:23;6.30;;;4.47;;
51618;SDS011;38518;53.164;5.430;2022-10-23T15:06:49;7.10;;;5.13;;
51618;SDS011;38518;53.164;5.430;2022-10-23T15:09:15;7.57;;;4.68;;
51618;SDS011;38518;53.164;5.430;2022-10-23T15:11:43;5.95;;;4.30;;
51618;SDS011;38518;53.164;5.430;2022-10-23T15:14:09;9.18;;;4.78;;
51618;SDS011;38518;53.164;5.430;2022-10-23T15:16:35;5.78;;;5.18;;
51618;SDS011;38518;53.164;5.430;2022-10-23T15:19:05;6.53;;;4.18;;
51618;SDS011;38518;53.164;5.430;2022-10-23T15:21:35;8.98;;;4.60;;
51618;SDS011;38518;53.164;5.430;2022-10-23T15:24:00;6.07;;;4.22;;
51618;SDS011;38518;53.164;5.430;2022-10-23T15:26:26;7.40;;;4.43;;
51618;SDS011;38518;53.164;5.430;2022-10-23T15:28:53;8.10;;;4.55;;
51618;SDS011;38518;53.164;5.430;2022-10-23T15:34:02;7.78;;;4.55;;
51618;SDS011;38518;53.164;5.430;2022-10-23T15:36:29;5.45;;;3.90;;
51618;SDS011;38518;53.164;5.430;2022-10-23T15:38:55;5.28;;;3.90;;
51618;SDS011;38518;53.164;5.430;2022-10-23T15:41:24;8.93;;;4.60;;
51618;SDS011;38518;53.164;5.430;2022-10-23T15:43:52;5.55;;;4.10;;
51618;SDS011;38518;53.164;5.430;2022-10-23T15:46:18;5.75;;;3.90;;
51618;SDS011;38518;53.164;5.430;2022-10-23T15:48:43;6.72;;;4.30;;
51618;SDS011;38518;53.164;5.430;2022-10-23T15:51:09;5.32;;;4.10;;
51618;SDS011;38518;53.164;5.430;2022-10-23T15:53:35;7.47;;;3.97;;
51618;SDS011;38518;53.164;5.430;2022-10-23T15:56:01;5.60;;;4.07;;
51618;SDS011;38518;53.164;5.430;2022-10-23T15:58:27;6.72;;;4.47;;
51618;SDS011;38518;53.164;5.430;2022-10-23T16:00:52;11.75;;;4.60;;
51618;SDS011;38518;53.164;5.430;2022-10-23T16:03:18;6.72;;;4.50;;
51618;SDS011;38518;53.164;5.430;2022-10-23T16:05:44;6.93;;;4.13;;
51618;SDS011;38518;53.164;5.430;2022-10-23T16:08:10;9.65;;;4.25;;
51618;SDS011;38518;53.164;5.430;2022-10-23T16:10:39;5.80;;;3.70;;
51618;SDS011;38518;53.164;5.430;2022-10-23T16:13:06;7.40;;;4.85;;
51618;SDS011;38518;53.164;5.430;2022-10-23T16:15:35;7.00;;;4.82;;
51618;SDS011;38518;53.164;5.430;2022-10-23T16:18:01;5.78;;;4.65;;
51618;SDS011;38518;53.164;5.430;2022-10-23T16:20:26;8.55;;;4.93;;
51618;SDS011;38518;53.164;5.430;2022-10-23T16:22:52;6.97;;;5.00;;
51618;SDS011;38518;53.164;5.430;2022-10-23T16:25:19;5.97;;;4.90;;
51618;SDS011;38518;53.164;5.430;2022-10-23T16:27:45;7.82;;;4.82;;
51618;SDS011;38518;53.164;5.430;2022-10-23T16:30:11;7.38;;;5.13;;
51618;SDS011;38518;53.164;5.430;2022-10-23T16:32:41;7.13;;;5.22;;
51618;SDS011;38518;53.164;5.430;2022-10-23T16:35:07;7.63;;;4.97;;
51618;SDS011;38518;53.164;5.430;2022-10-23T16:37:34;7.05;;;5.20;;
51618;SDS011;38518;53.164;5.430;2022-10-23T16:39:59;10.65;;;5.72;;
51618;SDS011;38518;53.164;5.430;2022-10-23T16:42:26;8.48;;;5.60;;
51618;SDS011;38518;53.164;5.430;2022-10-23T16:44:52;7.25;;;4.88;;
51618;SDS011;38518;53.164;5.430;2022-10-23T16:47:18;7.15;;;5.38;;